sensor_id;sensor_type;location;lat;lon;timestamp;temperature;humidity
21104;DHT22;10710;53.398;-1.514;2022-11-11T00:01:38;14.90;99.90
21104;DHT22;10710;53.398;-1.514;2022-11-11T00:04:04;14.80;99.90
21104;DHT22;10710;53.398;-1.514;2022-11-11T00:06:30;14.90;99.90
21104;DHT22;10710;53.398;-1.514;2022-11-11T00:08:55;14.90;99.90
21104;DHT22;10710;53.398;-1.514;2022-11-11T00:11:22;14.90;99.90
21104;DHT22;10710;53.398;-1.514;2022-11-11T00:13:48;14.90;99.90
21104;DHT22;10710;53.398;-1.514;2022-11-11T00:16:16;14.90;99.90
21104;DHT22;10710;53.398;-1.514;2022-11-11T00:18:43;14.90;99.90
21104;DHT22;10710;53.398;-1.514;2022-11-11T00:21:29;14.90;99.90
21104;DHT22;10710;53.398;-1.514;2022-11-11T00:24:24;14.90;99.90
21104;DHT22;10710;53.398;-1.514;2022-11-11T00:27:10;14.90;99.90
21104;DHT22;10710;53.398;-1.514;2022-11-11T00:29:37;14.90;99.90
21104;DHT22;10710;53.398;-1.514;2022-11-11T00:32:05;14.90;99.90
21104;DHT22;10710;53.398;-1.514;2022-11-11T00:34:53;14.90;99.90
21104;DHT22;10710;53.398;-1.514;2022-11-11T00:37:39;14.80;99.90
21104;DHT22;10710;53.398;-1.514;2022-11-11T00:40:06;14.90;99.90
21104;DHT22;10710;53.398;-1.514;2022-11-11T00:42:33;14.80;99.90
21104;DHT22;10710;53.398;-1.514;2022-11-11T00:44:59;14.80;99.90
21104;DHT22;10710;53.398;-1.514;2022-11-11T00:47:25;14.80;99.90
21104;DHT22;10710;53.398;-1.514;2022-11-11T00:52:59;14.90;99.90
21104;DHT22;10710;53.398;-1.514;2022-11-11T00:55:24;14.90;99.90
21104;DHT22;10710;53.398;-1.514;2022-11-11T00:57:50;14.90;99.90
21104;DHT22;10710;53.398;-1.514;2022-11-11T01:00:16;14.90;99.90
21104;DHT22;10710;53.398;-1.514;2022-11-11T01:02:42;14.90;99.90
21104;DHT22;10710;53.398;-1.514;2022-11-11T01:05:08;14.90;99.90
21104;DHT22;10710;53.398;-1.514;2022-11-11T01:07:33;14.80;99.90
21104;DHT22;10710;53.398;-1.514;2022-11-11T01:09:59;14.90;99.90
21104;DHT22;10710;53.398;-1.514;2022-11-11T01:12:25;14.80;99.90
21104;DHT22;10710;53.398;-1.514;2022-11-11T01:14:51;14.90;99.90
21104;DHT22;10710;53.398;-1.514;2022-11-11T01:17:18;14.80;99.90
21104;DHT22;10710;53.398;-1.514;2022-11-11T01:19:44;14.90;99.90
21104;DHT22;10710;53.398;-1.514;2022-11-11T01:22:10;14.90;99.90
21104;DHT22;10710;53.398;-1.514;2022-11-11T01:24:36;14.90;99.90
21104;DHT22;10710;53.398;-1.514;2022-11-11T01:27:03;14.90;99.90
21104;DHT22;10710;53.398;-1.514;2022-11-11T01:29:29;14.90;99.90
21104;DHT22;10710;53.398;-1.514;2022-11-11T01:31:55;14.90;99.90
21104;DHT22;10710;53.398;-1.514;2022-11-11T01:34:20;14.90;99.90
21104;DHT22;10710;53.398;-1.514;2022-11-11T01:36:46;14.90;99.90
21104;DHT22;10710;53.398;-1.514;2022-11-11T01:39:12;14.90;99.90
21104;DHT22;10710;53.398;-1.514;2022-11-11T01:41:38;14.90;99.90
21104;DHT22;10710;53.398;-1.514;2022-11-11T01:46:53;15.00;99.90
21104;DHT22;10710;53.398;-1.514;2022-11-11T01:49:25;15.00;99.90
21104;DHT22;10710;53.398;-1.514;2022-11-11T01:54:37;15.00;99.90
21104;DHT22;10710;53.398;-1.514;2022-11-11T01:57:09;15.00;99.90
21104;DHT22;10710;53.398;-1.514;2022-11-11T01:59:39;15.00;99.90
21104;DHT22;10710;53.398;-1.514;2022-11-11T02:02:20;15.00;99.90
21104;DHT22;10710;53.398;-1.514;2022-11-11T02:04:48;15.10;99.90
21104;DHT22;10710;53.398;-1.514;2022-11-11T02:07:35;15.10;99.90
21104;DHT22;10710;53.398;-1.514;2022-11-11T02:10:05;15.00;99.90
21104;DHT22;10710;53.398;-1.514;2022-11-11T02:12:33;15.00;99.90
21104;DHT22;10710;53.398;-1.514;2022-11-11T02:15:17;15.00;99.90
21104;DHT22;10710;53.398;-1.514;2022-11-11T02:17:46;15.00;99.90
21104;DHT22;10710;53.398;-1.514;2022-11-11T02:20:14;15.10;99.90
21104;DHT22;10710;53.398;-1.514;2022-11-11T02:22:57;15.10;99.90
21104;DHT22;10710;53.398;-1.514;2022-11-11T02:25:28;15.10;99.90
21104;DHT22;10710;53.398;-1.514;2022-11-11T02:27:58;15.20;99.90
21104;DHT22;10710;53.398;-1.514;2022-11-11T02:30:26;15.20;99.90
21104;DHT22;10710;53.398;-1.514;2022-11-11T02:32:53;15.20;99.90
21104;DHT22;10710;53.398;-1.514;2022-11-11T02:35:31;15.20;99.90
21104;DHT22;10710;53.398;-1.514;2022-11-11T02:37:57;15.20;99.90
21104;DHT22;10710;53.398;-1.514;2022-11-11T02:40:32;15.20;99.90
21104;DHT22;10710;53.398;-1.514;2022-11-11T02:42:58;15.20;99.90
21104;DHT22;10710;53.398;-1.514;2022-11-11T02:45:24;15.20;99.90
21104;DHT22;10710;53.398;-1.514;2022-11-11T02:47:50;15.20;99.90
21104;DHT22;10710;53.398;-1.514;2022-11-11T02:50:15;15.20;99.90
21104;DHT22;10710;53.398;-1.514;2022-11-11T02:52:41;15.20;99.90
21104;DHT22;10710;53.398;-1.514;2022-11-11T02:55:07;15.10;99.90
21104;DHT22;10710;53.398;-1.514;2022-11-11T02:57:34;15.20;99.90
21104;DHT22;10710;53.398;-1.514;2022-11-11T03:00:00;15.20;99.90
21104;DHT22;10710;53.398;-1.514;2022-11-11T03:02:28;15.20;99.90
21104;DHT22;10710;53.398;-1.514;2022-11-11T03:04:55;15.20;99.90
21104;DHT22;10710;53.398;-1.514;2022-11-11T03:07:21;15.20;99.90
21104;DHT22;10710;53.398;-1.514;2022-11-11T03:09:47;15.20;99.90
21104;DHT22;10710;53.398;-1.514;2022-11-11T03:12:14;15.30;99.90
21104;DHT22;10710;53.398;-1.514;2022-11-11T03:14:40;15.30;99.90
21104;DHT22;10710;53.398;-1.514;2022-11-11T03:17:06;15.30;99.90
21104;DHT22;10710;53.398;-1.514;2022-11-11T03:19:50;15.30;99.90
21104;DHT22;10710;53.398;-1.514;2022-11-11T03:22:16;15.30;99.90
21104;DHT22;10710;53.398;-1.514;2022-11-11T03:24:42;15.30;99.90
21104;DHT22;10710;53.398;-1.514;2022-11-11T03:27:43;15.30;99.90
21104;DHT22;10710;53.398;-1.514;2022-11-11T03:30:09;15.40;99.90
21104;DHT22;10710;53.398;-1.514;2022-11-11T03:32:36;15.40;99.90
21104;DHT22;10710;53.398;-1.514;2022-11-11T03:35:01;15.50;99.90
21104;DHT22;10710;53.398;-1.514;2022-11-11T03:37:27;15.40;99.90
21104;DHT22;10710;53.398;-1.514;2022-11-11T03:40:12;15.40;99.90
21104;DHT22;10710;53.398;-1.514;2022-11-11T03:42:38;15.40;99.90
21104;DHT22;10710;53.398;-1.514;2022-11-11T03:45:06;15.30;99.90
21104;DHT22;10710;53.398;-1.514;2022-11-11T03:47:33;15.30;99.90
21104;DHT22;10710;53.398;-1.514;2022-11-11T03:49:58;15.30;99.90
21104;DHT22;10710;53.398;-1.514;2022-11-11T03:52:24;15.30;99.90
21104;DHT22;10710;53.398;-1.514;2022-11-11T03:54:50;15.20;99.90
21104;DHT22;10710;53.398;-1.514;2022-11-11T03:57:16;15.30;99.90
21104;DHT22;10710;53.398;-1.514;2022-11-11T03:59:57;15.20;99.90
21104;DHT22;10710;53.398;-1.514;2022-11-11T04:02:23;15.10;99.90
21104;DHT22;10710;53.398;-1.514;2022-11-11T04:05:07;15.10;99.90
21104;DHT22;10710;53.398;-1.514;2022-11-11T04:07:52;15.10;99.90
21104;DHT22;10710;53.398;-1.514;2022-11-11T04:10:36;15.00;99.90
21104;DHT22;10710;53.398;-1.514;2022-11-11T04:13:04;15.00;99.90
21104;DHT22;10710;53.398;-1.514;2022-11-11T04:15:48;15.00;99.90
21104;DHT22;10710;53.398;-1.514;2022-11-11T04:18:34;15.00;99.90
21104;DHT22;10710;53.398;-1.514;2022-11-11T04:21:19;14.90;99.90
21104;DHT22;10710;53.398;-1.514;2022-11-11T04:24:19;14.80;99.90
21104;DHT22;10710;53.398;-1.514;2022-11-11T04:27:09;14.80;99.90
21104;DHT22;10710;53.398;-1.514;2022-11-11T04:29:36;14.80;99.90
21104;DHT22;10710;53.398;-1.514;2022-11-11T04:32:13;14.70;99.90
21104;DHT22;10710;53.398;-1.514;2022-11-11T04:34:59;14.70;99.90
21104;DHT22;10710;53.398;-1.514;2022-11-11T04:37:27;14.70;99.90
21104;DHT22;10710;53.398;-1.514;2022-11-11T04:39:55;14.70;99.90
21104;DHT22;10710;53.398;-1.514;2022-11-11T04:42:40;14.70;99.90
21104;DHT22;10710;53.398;-1.514;2022-11-11T04:45:07;14.80;99.90
21104;DHT22;10710;53.398;-1.514;2022-11-11T04:48:07;14.70;99.90
21104;DHT22;10710;53.398;-1.514;2022-11-11T04:50:35;14.70;99.90
21104;DHT22;10710;53.398;-1.514;2022-11-11T04:53:03;14.80;99.90
21104;DHT22;10710;53.398;-1.514;2022-11-11T04:55:30;14.70;99.90
21104;DHT22;10710;53.398;-1.514;2022-11-11T04:58:15;14.70;99.90
21104;DHT22;10710;53.398;-1.514;2022-11-11T05:00:41;14.70;99.90
21104;DHT22;10710;53.398;-1.514;2022-11-11T05:03:10;14.80;99.90
21104;DHT22;10710;53.398;-1.514;2022-11-11T05:05:53;14.70;99.90
21104;DHT22;10710;53.398;-1.514;2022-11-11T05:08:42;14.70;99.90
21104;DHT22;10710;53.398;-1.514;2022-11-11T05:13:57;14.60;99.90
21104;DHT22;10710;53.398;-1.514;2022-11-11T05:16:53;14.70;99.90
21104;DHT22;10710;53.398;-1.514;2022-11-11T05:19:39;14.70;99.90
21104;DHT22;10710;53.398;-1.514;2022-11-11T05:22:32;14.70;99.90
21104;DHT22;10710;53.398;-1.514;2022-11-11T05:24:59;14.70;99.90
21104;DHT22;10710;53.398;-1.514;2022-11-11T05:27:44;14.70;99.90
21104;DHT22;10710;53.398;-1.514;2022-11-11T05:30:12;14.70;99.90
21104;DHT22;10710;53.398;-1.514;2022-11-11T05:32:40;14.70;99.90
21104;DHT22;10710;53.398;-1.514;2022-11-11T05:35:09;14.70;99.90
21104;DHT22;10710;53.398;-1.514;2022-11-11T05:37:36;14.70;99.90
21104;DHT22;10710;53.398;-1.514;2022-11-11T05:40:03;14.70;99.90
21104;DHT22;10710;53.398;-1.514;2022-11-11T05:42:29;14.60;99.90
21104;DHT22;10710;53.398;-1.514;2022-11-11T05:44:54;14.60;99.90
21104;DHT22;10710;53.398;-1.514;2022-11-11T05:47:20;14.50;99.90
21104;DHT22;10710;53.398;-1.514;2022-11-11T05:49:46;14.50;99.90
21104;DHT22;10710;53.398;-1.514;2022-11-11T05:52:13;14.50;99.90
21104;DHT22;10710;53.398;-1.514;2022-11-11T05:54:41;14.60;99.90
21104;DHT22;10710;53.398;-1.514;2022-11-11T05:57:07;14.40;99.90
21104;DHT22;10710;53.398;-1.514;2022-11-11T05:59:34;14.50;99.90
21104;DHT22;10710;53.398;-1.514;2022-11-11T06:02:00;14.60;99.90
21104;DHT22;10710;53.398;-1.514;2022-11-11T06:04:26;14.60;99.90
21104;DHT22;10710;53.398;-1.514;2022-11-11T06:06:53;14.60;99.90
21104;DHT22;10710;53.398;-1.514;2022-11-11T06:09:19;14.60;99.90
21104;DHT22;10710;53.398;-1.514;2022-11-11T06:11:45;14.60;99.90
21104;DHT22;10710;53.398;-1.514;2022-11-11T06:14:11;14.60;99.90
21104;DHT22;10710;53.398;-1.514;2022-11-11T06:16:36;14.60;99.90
21104;DHT22;10710;53.398;-1.514;2022-11-11T06:19:02;14.70;99.90
21104;DHT22;10710;53.398;-1.514;2022-11-11T06:21:30;14.70;99.90
21104;DHT22;10710;53.398;-1.514;2022-11-11T06:23:57;14.70;99.90
21104;DHT22;10710;53.398;-1.514;2022-11-11T06:26:22;14.70;99.90
21104;DHT22;10710;53.398;-1.514;2022-11-11T06:28:50;14.60;99.90
21104;DHT22;10710;53.398;-1.514;2022-11-11T06:31:19;14.70;99.90
21104;DHT22;10710;53.398;-1.514;2022-11-11T06:33:45;14.70;99.90
21104;DHT22;10710;53.398;-1.514;2022-11-11T06:36:13;14.60;99.90
21104;DHT22;10710;53.398;-1.514;2022-11-11T06:38:40;14.60;99.90
21104;DHT22;10710;53.398;-1.514;2022-11-11T06:41:07;14.60;99.90
21104;DHT22;10710;53.398;-1.514;2022-11-11T06:43:34;14.60;99.90
21104;DHT22;10710;53.398;-1.514;2022-11-11T06:46:01;14.60;99.90
21104;DHT22;10710;53.398;-1.514;2022-11-11T06:48:28;14.50;99.90
21104;DHT22;10710;53.398;-1.514;2022-11-11T06:50:54;14.50;99.90
21104;DHT22;10710;53.398;-1.514;2022-11-11T06:53:21;14.50;99.90
21104;DHT22;10710;53.398;-1.514;2022-11-11T06:55:50;14.60;99.90
21104;DHT22;10710;53.398;-1.514;2022-11-11T06:58:18;14.60;99.90
21104;DHT22;10710;53.398;-1.514;2022-11-11T07:00:45;14.60;99.90
21104;DHT22;10710;53.398;-1.514;2022-11-11T07:03:13;14.70;99.90
21104;DHT22;10710;53.398;-1.514;2022-11-11T07:05:40;14.60;99.90
21104;DHT22;10710;53.398;-1.514;2022-11-11T07:08:11;14.60;99.90
21104;DHT22;10710;53.398;-1.514;2022-11-11T07:10:39;14.70;99.90
21104;DHT22;10710;53.398;-1.514;2022-11-11T07:13:06;14.70;99.90
21104;DHT22;10710;53.398;-1.514;2022-11-11T07:15:33;14.60;99.90
21104;DHT22;10710;53.398;-1.514;2022-11-11T07:17:59;14.50;99.90
21104;DHT22;10710;53.398;-1.514;2022-11-11T07:20:25;14.40;99.90
21104;DHT22;10710;53.398;-1.514;2022-11-11T07:22:51;14.50;99.90
21104;DHT22;10710;53.398;-1.514;2022-11-11T07:25:17;14.60;99.90
21104;DHT22;10710;53.398;-1.514;2022-11-11T07:27:43;14.70;99.90
21104;DHT22;10710;53.398;-1.514;2022-11-11T07:30:10;14.80;99.90
21104;DHT22;10710;53.398;-1.514;2022-11-11T07:32:38;14.80;99.90
21104;DHT22;10710;53.398;-1.514;2022-11-11T07:35:09;14.90;99.90
21104;DHT22;10710;53.398;-1.514;2022-11-11T07:37:36;15.00;99.90
21104;DHT22;10710;53.398;-1.514;2022-11-11T07:40:02;14.90;99.90
21104;DHT22;10710;53.398;-1.514;2022-11-11T07:42:28;15.00;99.90
21104;DHT22;10710;53.398;-1.514;2022-11-11T07:44:55;14.90;99.90
21104;DHT22;10710;53.398;-1.514;2022-11-11T07:47:20;14.90;99.90
21104;DHT22;10710;53.398;-1.514;2022-11-11T07:49:46;14.90;99.90
21104;DHT22;10710;53.398;-1.514;2022-11-11T07:52:13;14.90;99.90
21104;DHT22;10710;53.398;-1.514;2022-11-11T07:54:40;14.90;99.90
21104;DHT22;10710;53.398;-1.514;2022-11-11T07:57:06;14.90;99.90
21104;DHT22;10710;53.398;-1.514;2022-11-11T07:59:31;14.90;99.90
21104;DHT22;10710;53.398;-1.514;2022-11-11T08:01:57;15.00;99.90
21104;DHT22;10710;53.398;-1.514;2022-11-11T08:04:23;15.00;99.90
21104;DHT22;10710;53.398;-1.514;2022-11-11T08:06:49;15.10;99.90
21104;DHT22;10710;53.398;-1.514;2022-11-11T08:09:15;15.20;99.90
21104;DHT22;10710;53.398;-1.514;2022-11-11T08:11:41;15.20;99.90
21104;DHT22;10710;53.398;-1.514;2022-11-11T08:14:25;15.30;99.90
21104;DHT22;10710;53.398;-1.514;2022-11-11T08:16:52;15.40;99.90
21104;DHT22;10710;53.398;-1.514;2022-11-11T08:19:18;15.50;99.90
21104;DHT22;10710;53.398;-1.514;2022-11-11T08:21:44;15.60;99.90
21104;DHT22;10710;53.398;-1.514;2022-11-11T08:24:10;15.60;99.90
21104;DHT22;10710;53.398;-1.514;2022-11-11T08:26:36;15.60;99.90
21104;DHT22;10710;53.398;-1.514;2022-11-11T08:29:02;15.70;99.90
21104;DHT22;10710;53.398;-1.514;2022-11-11T08:31:28;15.70;99.90
21104;DHT22;10710;53.398;-1.514;2022-11-11T08:33:54;15.70;99.90
21104;DHT22;10710;53.398;-1.514;2022-11-11T08:36:21;15.80;99.90
21104;DHT22;10710;53.398;-1.514;2022-11-11T08:38:48;15.90;99.90
21104;DHT22;10710;53.398;-1.514;2022-11-11T08:41:16;15.90;99.90
21104;DHT22;10710;53.398;-1.514;2022-11-11T08:43:42;16.00;99.90
21104;DHT22;10710;53.398;-1.514;2022-11-11T08:46:08;16.00;99.90
21104;DHT22;10710;53.398;-1.514;2022-11-11T08:48:36;16.00;99.90
21104;DHT22;10710;53.398;-1.514;2022-11-11T08:51:02;16.00;99.90
21104;DHT22;10710;53.398;-1.514;2022-11-11T08:53:27;16.00;99.90
21104;DHT22;10710;53.398;-1.514;2022-11-11T08:55:54;16.10;99.90
21104;DHT22;10710;53.398;-1.514;2022-11-11T08:58:20;16.10;99.90
21104;DHT22;10710;53.398;-1.514;2022-11-11T09:00:47;16.00;99.90
21104;DHT22;10710;53.398;-1.514;2022-11-11T09:03:12;16.10;99.90
21104;DHT22;10710;53.398;-1.514;2022-11-11T09:05:38;16.00;99.90
21104;DHT22;10710;53.398;-1.514;2022-11-11T09:08:06;16.00;99.90
21104;DHT22;10710;53.398;-1.514;2022-11-11T09:10:36;16.00;99.90
21104;DHT22;10710;53.398;-1.514;2022-11-11T09:13:03;16.00;99.90
21104;DHT22;10710;53.398;-1.514;2022-11-11T09:15:29;16.10;99.90
21104;DHT22;10710;53.398;-1.514;2022-11-11T09:17:56;16.10;99.90
21104;DHT22;10710;53.398;-1.514;2022-11-11T09:20:22;16.10;99.90
21104;DHT22;10710;53.398;-1.514;2022-11-11T09:22:48;16.20;99.90
21104;DHT22;10710;53.398;-1.514;2022-11-11T09:25:15;16.20;99.90
21104;DHT22;10710;53.398;-1.514;2022-11-11T09:27:41;16.20;99.90
21104;DHT22;10710;53.398;-1.514;2022-11-11T09:30:09;16.20;99.90
21104;DHT22;10710;53.398;-1.514;2022-11-11T09:32:36;16.30;99.90
21104;DHT22;10710;53.398;-1.514;2022-11-11T09:35:03;16.30;99.90
21104;DHT22;10710;53.398;-1.514;2022-11-11T09:37:28;16.30;99.90
21104;DHT22;10710;53.398;-1.514;2022-11-11T09:39:54;16.30;99.90
21104;DHT22;10710;53.398;-1.514;2022-11-11T09:42:45;16.40;99.90
21104;DHT22;10710;53.398;-1.514;2022-11-11T09:45:21;16.40;99.90
21104;DHT22;10710;53.398;-1.514;2022-11-11T09:48:10;16.40;99.90
21104;DHT22;10710;53.398;-1.514;2022-11-11T09:50:40;16.40;99.90
21104;DHT22;10710;53.398;-1.514;2022-11-11T09:56:14;16.40;99.90
21104;DHT22;10710;53.398;-1.514;2022-11-11T09:58:51;16.30;99.90
21104;DHT22;10710;53.398;-1.514;2022-11-11T10:01:25;16.30;99.90
21104;DHT22;10710;53.398;-1.514;2022-11-11T10:06:39;16.40;99.90
21104;DHT22;10710;53.398;-1.514;2022-11-11T10:09:18;16.40;99.90
21104;DHT22;10710;53.398;-1.514;2022-11-11T10:14:35;16.40;99.90
21104;DHT22;10710;53.398;-1.514;2022-11-11T10:22:22;16.50;99.90
21104;DHT22;10710;53.398;-1.514;2022-11-11T10:25:07;16.60;99.90
21104;DHT22;10710;53.398;-1.514;2022-11-11T10:27:33;16.70;99.90
21104;DHT22;10710;53.398;-1.514;2022-11-11T10:30:12;16.80;99.90
21104;DHT22;10710;53.398;-1.514;2022-11-11T10:32:39;16.90;99.90
21104;DHT22;10710;53.398;-1.514;2022-11-11T10:35:26;16.90;99.90
21104;DHT22;10710;53.398;-1.514;2022-11-11T10:38:11;17.00;99.90
21104;DHT22;10710;53.398;-1.514;2022-11-11T10:40:54;17.10;99.90
21104;DHT22;10710;53.398;-1.514;2022-11-11T10:43:27;17.10;99.90
21104;DHT22;10710;53.398;-1.514;2022-11-11T10:45:56;17.20;99.90
21104;DHT22;10710;53.398;-1.514;2022-11-11T10:51:07;17.40;99.90
21104;DHT22;10710;53.398;-1.514;2022-11-11T10:56:43;17.50;99.90
21104;DHT22;10710;53.398;-1.514;2022-11-11T10:59:25;17.50;99.90
21104;DHT22;10710;53.398;-1.514;2022-11-11T11:02:04;17.60;99.90
21104;DHT22;10710;53.398;-1.514;2022-11-11T11:04:43;17.60;99.90
21104;DHT22;10710;53.398;-1.514;2022-11-11T11:07:17;17.70;99.90
21104;DHT22;10710;53.398;-1.514;2022-11-11T11:12:32;17.60;99.90
21104;DHT22;10710;53.398;-1.514;2022-11-11T11:15:10;17.70;99.90
21104;DHT22;10710;53.398;-1.514;2022-11-11T11:18:05;17.60;99.90
21104;DHT22;10710;53.398;-1.514;2022-11-11T11:20:33;17.60;99.90
21104;DHT22;10710;53.398;-1.514;2022-11-11T11:22:59;17.60;99.90
21104;DHT22;10710;53.398;-1.514;2022-11-11T11:25:28;17.50;99.90
21104;DHT22;10710;53.398;-1.514;2022-11-11T11:28:12;17.50;99.90
21104;DHT22;10710;53.398;-1.514;2022-11-11T11:30:38;17.50;99.90
21104;DHT22;10710;53.398;-1.514;2022-11-11T11:33:06;17.50;99.90
21104;DHT22;10710;53.398;-1.514;2022-11-11T11:35:41;17.50;99.90
21104;DHT22;10710;53.398;-1.514;2022-11-11T11:38:11;17.40;99.90
21104;DHT22;10710;53.398;-1.514;2022-11-11T11:40:53;17.40;99.90
21104;DHT22;10710;53.398;-1.514;2022-11-11T11:43:38;17.40;99.90
21104;DHT22;10710;53.398;-1.514;2022-11-11T11:52:11;17.60;99.90
21104;DHT22;10710;53.398;-1.514;2022-11-11T11:54:49;17.50;99.90
21104;DHT22;10710;53.398;-1.514;2022-11-11T12:05:43;17.80;99.90
21104;DHT22;10710;53.398;-1.514;2022-11-11T12:12:02;17.70;99.90
21104;DHT22;10710;53.398;-1.514;2022-11-11T12:16:57;17.70;99.90
21104;DHT22;10710;53.398;-1.514;2022-11-11T12:19:54;17.70;99.90
21104;DHT22;10710;53.398;-1.514;2022-11-11T12:30:24;17.70;99.90
21104;DHT22;10710;53.398;-1.514;2022-11-11T12:44:18;17.80;99.90
21104;DHT22;10710;53.398;-1.514;2022-11-11T12:52:11;17.90;99.90
21104;DHT22;10710;53.398;-1.514;2022-11-11T12:54:57;17.90;99.90
21104;DHT22;10710;53.398;-1.514;2022-11-11T13:00:19;17.90;99.90
21104;DHT22;10710;53.398;-1.514;2022-11-11T13:17:39;18.10;99.90
21104;DHT22;10710;53.398;-1.514;2022-11-11T13:22:40;18.30;99.90
21104;DHT22;10710;53.398;-1.514;2022-11-11T13:25:12;18.40;99.90
21104;DHT22;10710;53.398;-1.514;2022-11-11T13:27:50;18.40;99.90
21104;DHT22;10710;53.398;-1.514;2022-11-11T13:30:26;18.50;99.90
21104;DHT22;10710;53.398;-1.514;2022-11-11T13:33:09;18.70;99.90
21104;DHT22;10710;53.398;-1.514;2022-11-11T13:38:33;18.60;99.90
21104;DHT22;10710;53.398;-1.514;2022-11-11T13:41:04;18.50;99.90
21104;DHT22;10710;53.398;-1.514;2022-11-11T13:45:57;18.50;99.90
21104;DHT22;10710;53.398;-1.514;2022-11-11T13:48:43;18.50;99.90
21104;DHT22;10710;53.398;-1.514;2022-11-11T13:51:18;18.40;99.90
21104;DHT22;10710;53.398;-1.514;2022-11-11T13:53:46;18.50;99.90
21104;DHT22;10710;53.398;-1.514;2022-11-11T13:56:23;18.50;99.90
21104;DHT22;10710;53.398;-1.514;2022-11-11T13:58:50;18.50;99.90
21104;DHT22;10710;53.398;-1.514;2022-11-11T14:01:17;18.50;99.90
21104;DHT22;10710;53.398;-1.514;2022-11-11T14:22:01;18.70;99.90
21104;DHT22;10710;53.398;-1.514;2022-11-11T14:24:45;18.80;99.90
21104;DHT22;10710;53.398;-1.514;2022-11-11T14:27:24;18.90;99.90
21104;DHT22;10710;53.398;-1.514;2022-11-11T14:29:53;18.80;99.90
21104;DHT22;10710;53.398;-1.514;2022-11-11T14:33:28;18.80;99.90
21104;DHT22;10710;53.398;-1.514;2022-11-11T14:35:39;18.60;99.90
21104;DHT22;10710;53.398;-1.514;2022-11-11T14:57:33;18.00;99.90
21104;DHT22;10710;53.398;-1.514;2022-11-11T15:00:02;17.90;99.90
21104;DHT22;10710;53.398;-1.514;2022-11-11T15:02:40;17.90;99.90
21104;DHT22;10710;53.398;-1.514;2022-11-11T15:05:15;17.90;99.90
21104;DHT22;10710;53.398;-1.514;2022-11-11T15:16:14;17.80;99.90
21104;DHT22;10710;53.398;-1.514;2022-11-11T15:21:33;17.70;99.90
21104;DHT22;10710;53.398;-1.514;2022-11-11T15:24:31;17.70;99.90
21104;DHT22;10710;53.398;-1.514;2022-11-11T15:27:34;17.70;99.90
21104;DHT22;10710;53.398;-1.514;2022-11-11T15:30:16;17.70;99.90
21104;DHT22;10710;53.398;-1.514;2022-11-11T15:35:49;17.60;99.90
21104;DHT22;10710;53.398;-1.514;2022-11-11T15:38:17;17.60;99.90
21104;DHT22;10710;53.398;-1.514;2022-11-11T15:40:48;17.60;99.90
21104;DHT22;10710;53.398;-1.514;2022-11-11T15:43:23;17.60;99.90
21104;DHT22;10710;53.398;-1.514;2022-11-11T15:45:55;17.60;99.90
21104;DHT22;10710;53.398;-1.514;2022-11-11T15:50:57;17.50;99.90
21104;DHT22;10710;53.398;-1.514;2022-11-11T15:53:25;17.50;99.90
21104;DHT22;10710;53.398;-1.514;2022-11-11T15:55:54;17.50;99.90
21104;DHT22;10710;53.398;-1.514;2022-11-11T16:00:51;17.50;99.90
21104;DHT22;10710;53.398;-1.514;2022-11-11T16:03:22;17.50;99.90
21104;DHT22;10710;53.398;-1.514;2022-11-11T16:05:49;17.40;99.90
21104;DHT22;10710;53.398;-1.514;2022-11-11T16:08:18;17.40;99.90
21104;DHT22;10710;53.398;-1.514;2022-11-11T16:10:54;17.30;99.90
21104;DHT22;10710;53.398;-1.514;2022-11-11T16:13:27;17.40;99.90
21104;DHT22;10710;53.398;-1.514;2022-11-11T16:16:18;17.40;99.90
21104;DHT22;10710;53.398;-1.514;2022-11-11T16:21:45;17.20;99.90
21104;DHT22;10710;53.398;-1.514;2022-11-11T16:24:26;17.20;99.90
21104;DHT22;10710;53.398;-1.514;2022-11-11T16:26:53;17.20;99.90
21104;DHT22;10710;53.398;-1.514;2022-11-11T16:29:22;17.20;99.90
21104;DHT22;10710;53.398;-1.514;2022-11-11T16:31:49;17.10;99.90
21104;DHT22;10710;53.398;-1.514;2022-11-11T16:37:04;17.10;99.90
21104;DHT22;10710;53.398;-1.514;2022-11-11T16:39:31;17.10;99.90
21104;DHT22;10710;53.398;-1.514;2022-11-11T16:42:00;17.20;99.90
21104;DHT22;10710;53.398;-1.514;2022-11-11T16:44:44;17.10;99.90
21104;DHT22;10710;53.398;-1.514;2022-11-11T16:50:27;17.10;99.90
21104;DHT22;10710;53.398;-1.514;2022-11-11T16:52:57;17.20;99.90
21104;DHT22;10710;53.398;-1.514;2022-11-11T16:55:42;17.10;99.90
21104;DHT22;10710;53.398;-1.514;2022-11-11T16:58:12;17.10;99.90
21104;DHT22;10710;53.398;-1.514;2022-11-11T17:00:41;17.10;99.90
21104;DHT22;10710;53.398;-1.514;2022-11-11T17:03:23;17.00;99.90
21104;DHT22;10710;53.398;-1.514;2022-11-11T17:05:56;17.00;99.90
21104;DHT22;10710;53.398;-1.514;2022-11-11T17:10:56;16.90;99.90
21104;DHT22;10710;53.398;-1.514;2022-11-11T17:13:27;17.00;99.90
21104;DHT22;10710;53.398;-1.514;2022-11-11T17:15:55;17.00;99.90
21104;DHT22;10710;53.398;-1.514;2022-11-11T17:18:24;17.10;99.90
21104;DHT22;10710;53.398;-1.514;2022-11-11T17:20:51;17.10;99.90
21104;DHT22;10710;53.398;-1.514;2022-11-11T17:23:17;17.00;99.90
21104;DHT22;10710;53.398;-1.514;2022-11-11T17:25:43;17.00;99.90
21104;DHT22;10710;53.398;-1.514;2022-11-11T17:28:11;17.00;99.90
21104;DHT22;10710;53.398;-1.514;2022-11-11T17:30:37;16.90;99.90
21104;DHT22;10710;53.398;-1.514;2022-11-11T17:33:03;16.90;99.90
21104;DHT22;10710;53.398;-1.514;2022-11-11T17:35:29;16.80;99.90
21104;DHT22;10710;53.398;-1.514;2022-11-11T17:37:55;16.80;99.90
21104;DHT22;10710;53.398;-1.514;2022-11-11T17:40:21;16.80;99.90
21104;DHT22;10710;53.398;-1.514;2022-11-11T17:42:47;16.80;99.90
21104;DHT22;10710;53.398;-1.514;2022-11-11T17:45:13;16.90;99.90
21104;DHT22;10710;53.398;-1.514;2022-11-11T17:47:39;16.90;99.90
21104;DHT22;10710;53.398;-1.514;2022-11-11T17:50:05;16.90;99.90
21104;DHT22;10710;53.398;-1.514;2022-11-11T17:52:31;16.90;99.90
21104;DHT22;10710;53.398;-1.514;2022-11-11T17:54:57;16.80;99.90
21104;DHT22;10710;53.398;-1.514;2022-11-11T17:57:23;16.80;99.90
21104;DHT22;10710;53.398;-1.514;2022-11-11T17:59:50;16.80;99.90
21104;DHT22;10710;53.398;-1.514;2022-11-11T18:02:15;16.80;99.90
21104;DHT22;10710;53.398;-1.514;2022-11-11T18:04:42;16.80;99.90
21104;DHT22;10710;53.398;-1.514;2022-11-11T18:07:08;16.70;99.90
21104;DHT22;10710;53.398;-1.514;2022-11-11T18:09:34;16.60;99.90
21104;DHT22;10710;53.398;-1.514;2022-11-11T18:12:00;16.60;99.90
21104;DHT22;10710;53.398;-1.514;2022-11-11T18:14:25;16.50;99.90
21104;DHT22;10710;53.398;-1.514;2022-11-11T18:16:51;16.40;99.90
21104;DHT22;10710;53.398;-1.514;2022-11-11T18:19:17;16.40;99.90
21104;DHT22;10710;53.398;-1.514;2022-11-11T18:21:43;16.50;99.90
21104;DHT22;10710;53.398;-1.514;2022-11-11T18:24:09;16.50;99.90
21104;DHT22;10710;53.398;-1.514;2022-11-11T18:26:37;16.60;99.90
21104;DHT22;10710;53.398;-1.514;2022-11-11T18:29:08;16.60;99.90
21104;DHT22;10710;53.398;-1.514;2022-11-11T18:31:36;16.60;99.90